Schneifelwetter: Wetterstation Hallschlag, 537 m . NN
Wetterdaten: Montag, 02.03.2009
Datum Zeit Temp. A. Temp. 2 Feuchte A. Luftdruck Regen Wind Richtung Richtung Sonnenschein Helligkeit T Regen Taupunkt Windchill
02.03.2009 00:10 5,8 C 5,7 C 98 % 1008 hPa 0,0 l/m 14,1 km/h (3 Bft) SW22.5 235 0 min 0 lux 0,00 min 5,5 C 0,5 C
02.03.2009 00:25 5,8 C 5,6 C 98 % 1008 hPa 0,0 l/m 16,6 km/h (3 Bft) SW45 225 0 min 0 lux 0,00 min 5,5 C -0,7 C
02.03.2009 00:40 5,8 C 5,6 C 98 % 1008 hPa 0,0 l/m 16,1 km/h (3 Bft) SW22.5 230 0 min 0 lux 0,00 min 5,5 C -0,5 C
02.03.2009 00:55 5,7 C 5,6 C 98 % 1008 hPa 0,0 l/m 12,8 km/h (3 Bft) W-SW22.5 245 0 min 0 lux 0,00 min 5,4 C 1,1 C
02.03.2009 01:10 5,7 C 5,6 C 98 % 1008 hPa 0,3 l/m 14,4 km/h (3 Bft) W-SW22.5 240 0 min 0 lux 15,00 min 5,4 C 0,2 C
02.03.2009 01:25 5,7 C 5,6 C 98 % 1008 hPa 0,0 l/m 15,0 km/h (3 Bft) W-SW22.5 240 0 min 0 lux 0,00 min 5,4 C -0,1 C
02.03.2009 01:40 5,7 C 5,6 C 99 % 1009 hPa 0,0 l/m 15,1 km/h (3 Bft) SW45 235 0 min 0 lux 0,00 min 5,6 C -0,1 C
02.03.2009 01:55 5,7 C 5,6 C 99 % 1009 hPa 0,0 l/m 16,7 km/h (3 Bft) W-SW45 245 0 min 0 lux 0,00 min 5,6 C -0,9 C
02.03.2009 02:10 5,6 C 5,6 C 99 % 1009 hPa 0,0 l/m 16,5 km/h (3 Bft) SW22.5 230 0 min 0 lux 0,00 min 5,5 C -0,9 C
02.03.2009 02:25 5,6 C 5,6 C 99 % 1009 hPa 0,0 l/m 12,6 km/h (3 Bft) SW22.5 235 0 min 0 lux 0,00 min 5,5 C 1,1 C
02.03.2009 02:40 5,6 C 5,5 C 99 % 1009 hPa 0,0 l/m 14,7 km/h (3 Bft) W-SW22.5 250 0 min 0 lux 0,00 min 5,5 C -0,0 C
02.03.2009 02:55 5,6 C 5,5 C 99 % 1008 hPa 0,3 l/m 15,5 km/h (3 Bft) W-SW22.5 240 0 min 0 lux 15,00 min 5,5 C -0,4 C
02.03.2009 03:10 5,6 C 5,5 C 99 % 1008 hPa 0,0 l/m 15,8 km/h (3 Bft) W-SW22.5 245 0 min 0 lux 0,00 min 5,5 C -0,6 C
02.03.2009 03:25 5,6 C 5,5 C 99 % 1009 hPa 0,0 l/m 19,1 km/h (3 Bft) W-SW 245 0 min 0 lux 0,00 min 5,5 C -2,0 C
02.03.2009 03:40 5,6 C 5,5 C 99 % 1008 hPa 0,0 l/m 10,7 km/h (2 Bft) W-SW22.5 250 0 min 0 lux 0,00 min 5,5 C 2,3 C
02.03.2009 03:55 5,6 C 5,5 C 99 % 1008 hPa 0,0 l/m 14,1 km/h (3 Bft) W-SW22.5 250 0 min 0 lux 0,00 min 5,5 C 0,3 C
02.03.2009 04:10 5,5 C 5,4 C 99 % 1008 hPa 0,6 l/m 16,0 km/h (3 Bft) W-SW22.5 240 0 min 0 lux 15,00 min 5,4 C -0,8 C
02.03.2009 04:25 5,5 C 5,4 C 99 % 1008 hPa 0,0 l/m 18,6 km/h (3 Bft) W-SW 255 0 min 0 lux 0,00 min 5,4 C -2,0 C
02.03.2009 04:40 5,5 C 5,4 C 99 % 1008 hPa 0,0 l/m 19,0 km/h (3 Bft) W-SW22.5 250 0 min 0 lux 0,00 min 5,4 C -2,1 C
02.03.2009 04:55 5,5 C 5,3 C 99 % 1008 hPa 0,0 l/m 16,7 km/h (3 Bft) W-SW22.5 240 0 min 0 lux 0,00 min 5,4 C -1,1 C
02.03.2009 05:10 5,4 C 5,3 C 99 % 1008 hPa 0,0 l/m 18,0 km/h (3 Bft) W-SW22.5 250 0 min 0 lux 0,00 min 5,3 C -1,8 C
02.03.2009 05:25 5,4 C 5,3 C 99 % 1009 hPa 0,0 l/m 10,5 km/h (2 Bft) W-SW 250 0 min 0 lux 0,00 min 5,3 C 2,2 C
02.03.2009 05:40 5,4 C 5,2 C 99 % 1009 hPa 0,0 l/m 12,8 km/h (3 Bft) W-SW 255 0 min 0 lux 0,00 min 5,3 C 0,7 C
02.03.2009 05:55 5,3 C 5,1 C 99 % 1009 hPa 0,0 l/m 9,5 km/h (2 Bft) W 260 0 min 0 lux 0,00 min 5,2 C 2,8 C
02.03.2009 06:10 5,2 C 5,1 C 99 % 1009 hPa 0,0 l/m 10,3 km/h (2 Bft) W22.5 270 0 min 0 lux 0,00 min 5,1 C 2,1 C
02.03.2009 06:25 5,2 C 5,0 C 99 % 1009 hPa 0,0 l/m 10,5 km/h (2 Bft) W22.5 265 0 min 0 lux 0,00 min 5,1 C 1,9 C
02.03.2009 06:40 5,1 C 5,0 C 99 % 1009 hPa 0,0 l/m 15,1 km/h (3 Bft) W22.5 260 0 min 0 lux 0,00 min 5,0 C -0,9 C
02.03.2009 06:55 5,1 C 4,9 C 99 % 1009 hPa 0,0 l/m 21,1 km/h (4 Bft) W22.5 260 0 min 0 lux 0,00 min 5,0 C -3,5 C
02.03.2009 07:10 5,1 C 4,8 C 99 % 1009 hPa 0,0 l/m 14,0 km/h (3 Bft) W-SW22.5 250 0 min 41 lux 0,00 min 5,0 C -0,3 C
02.03.2009 07:25 4,9 C 4,8 C 99 % 1009 hPa 1,2 l/m 11,9 km/h (2 Bft) W22.5 260 0 min 225 lux 15,00 min 4,8 C 0,7 C
02.03.2009 07:40 4,9 C 4,8 C 99 % 1010 hPa 0,0 l/m 12,4 km/h (3 Bft) W22.5 260 0 min 350 lux 0,00 min 4,8 C 0,4 C
02.03.2009 08:01 4,9 C 4,7 C 99 % 1010 hPa 0,0 l/m 11,6 km/h (2 Bft) W22.5 260 0 min 451 lux 0,00 min 4,8 C 0,9 C
02.03.2009 08:16 4,8 C 4,6 C 99 % 1010 hPa 0,3 l/m 20,3 km/h (4 Bft) W22.5 280 0 min 909 lux 15,00 min 4,7 C -3,5 C
02.03.2009 08:31 4,7 C 4,6 C 99 % 1010 hPa 0,0 l/m 13,5 km/h (3 Bft) W22.5 275 0 min 1,68 klux 0,00 min 4,6 C -0,5 C
02.03.2009 08:46 4,7 C 4,5 C 98 % 1010 hPa 0,0 l/m 18,5 km/h (3 Bft) W45 280 0 min 2,71 klux 0,00 min 4,4 C -2,9 C
02.03.2009 09:01 4,6 C 4,6 C 98 % 1010 hPa 0,0 l/m 19,5 km/h (3 Bft) W22.5 260 0 min 4,00 klux 0,00 min 4,3 C -3,5 C
02.03.2009 09:15 4,6 C 4,6 C 98 % 1011 hPa 0,0 l/m 16,9 km/h (3 Bft) W45 275 0 min 4,22 klux 0,00 min 4,3 C -2,3 C
02.03.2009 09:30 4,4 C 4,5 C 98 % 1011 hPa 0,0 l/m 16,1 km/h (3 Bft) W45 280 0 min 10,4 klux 0,00 min 4,1 C -2,2 C
02.03.2009 09:46 4,5 C 4,7 C 97 % 1011 hPa 0,0 l/m 19,8 km/h (3 Bft) W45 270 0 min 12,3 klux 0,00 min 4,1 C -3,7 C
02.03.2009 10:01 4,5 C 4,8 C 96 % 1011 hPa 0,0 l/m 19,1 km/h (3 Bft) W45 270 0 min 10,8 klux 0,00 min 3,9 C -3,4 C
02.03.2009 10:16 4,5 C 4,9 C 96 % 1011 hPa 0,0 l/m 15,9 km/h (3 Bft) W22.5 280 0 min 9,8 klux 0,00 min 3,9 C -2,0 C
02.03.2009 10:31 4,5 C 5,0 C 95 % 1011 hPa 0,0 l/m 11,3 km/h (2 Bft) W-SW22.5 255 0 min 10,5 klux 0,00 min 3,8 C 0,6 C
02.03.2009 10:46 4,6 C 5,0 C 95 % 1012 hPa 0,0 l/m 11,0 km/h (2 Bft) W 270 0 min 10,9 klux 0,00 min 3,9 C 0,9 C
02.03.2009 11:01 4,7 C 5,2 C 95 % 1012 hPa 0,0 l/m 16,3 km/h (3 Bft) W22.5 270 0 min 12,7 klux 0,00 min 4,0 C -1,9 C
02.03.2009 11:15 5,3 C 5,7 C 94 % 1012 hPa 0,0 l/m 8,7 km/h (2 Bft) W-NW45 300 0 min 24,2 klux 0,00 min 4,4 C 3,4 C
02.03.2009 11:31 5,6 C 6,3 C 91 % 1012 hPa 0,0 l/m 13,5 km/h (3 Bft) W22.5 265 16 min 28,5 klux 0,00 min 4,2 C 0,6 C
02.03.2009 11:46 6,1 C 8,3 C 90 % 1012 hPa 0,0 l/m 13,7 km/h (3 Bft) W45 275 15 min 64,1 klux 0,00 min 4,6 C 1,1 C
02.03.2009 12:01 6,4 C 9,1 C 88 % 1012 hPa 0,0 l/m 15,1 km/h (3 Bft) W-NW67.5 300 15 min 52,8 klux 0,00 min 4,6 C 0,7 C
02.03.2009 12:16 6,2 C 9,0 C 86 % 1013 hPa 0,0 l/m 11,3 km/h (2 Bft) W-NW45 290 15 min 31,0 klux 0,00 min 4,0 C 2,6 C
02.03.2009 12:31 6,5 C 9,5 C 87 % 1013 hPa 0,0 l/m 16,0 km/h (3 Bft) W-NW45 290 15 min 69,9 klux 0,00 min 4,5 C 0,4 C
02.03.2009 12:46 6,8 C 9,1 C 84 % 1013 hPa 0,0 l/m 18,1 km/h (3 Bft) W45 280 15 min 32,6 klux 0,00 min 4,3 C -0,1 C
02.03.2009 13:00 6,7 C 8,5 C 83 % 1013 hPa 0,0 l/m 19,0 km/h (3 Bft) W22.5 260 0 min 27,5 klux 0,00 min 4,0 C -0,6 C
02.03.2009 13:15 6,6 C 8,0 C 81 % 1013 hPa 0,0 l/m 10,8 km/h (2 Bft) W-NW45 300 0 min 21,9 klux 0,00 min 3,6 C 3,3 C
02.03.2009 13:31 6,3 C 7,5 C 84 % 1013 hPa 0,0 l/m 13,3 km/h (3 Bft) W22.5 270 0 min 17,6 klux 0,00 min 3,8 C 1,5 C
02.03.2009 13:46 6,3 C 7,3 C 83 % 1013 hPa 0,0 l/m 15,3 km/h (3 Bft) W-SW45 255 0 min 23,4 klux 0,00 min 3,6 C 0,5 C
02.03.2009 14:01 6,3 C 7,5 C 83 % 1013 hPa 0,0 l/m 16,3 km/h (3 Bft) W22.5 260 0 min 22,0 klux 0,00 min 3,6 C 0,0 C
02.03.2009 14:16 6,1 C 7,0 C 82 % 1013 hPa 0,0 l/m 17,9 km/h (3 Bft) W45 265 0 min 14,3 klux 0,00 min 3,3 C -0,9 C
02.03.2009 14:31 6,2 C 7,3 C 82 % 1013 hPa 0,0 l/m 13,8 km/h (3 Bft) W22.5 265 15 min 30,2 klux 0,00 min 3,4 C 1,1 C
02.03.2009 14:46 6,0 C 6,8 C 80 % 1013 hPa 0,0 l/m 18,2 km/h (3 Bft) W45 275 0 min 22,7 klux 0,00 min 2,8 C -1,2 C
02.03.2009 15:00 5,9 C 8,5 C 81 % 1013 hPa 0,0 l/m 14,3 km/h (3 Bft) W22.5 260 14 min 48,5 klux 0,00 min 2,9 C 0,5 C
02.03.2009 15:16 6,7 C 10,1 C 82 % 1013 hPa 0,0 l/m 19,1 km/h (3 Bft) W-SW22.5 255 16 min 54,4 klux 0,00 min 3,8 C -0,6 C
02.03.2009 15:31 7,4 C 12,0 C 77 % 1013 hPa 0,0 l/m 31,1 km/h (5 Bft) W22.5 260 15 min 56,6 klux 0,00 min 3,6 C -3,3 C
02.03.2009 15:46 7,2 C 11,7 C 78 % 1013 hPa 0,0 l/m 18,6 km/h (3 Bft) W-NW45 295 15 min 40,5 klux 0,00 min 3,6 C 0,2 C
02.03.2009 16:01 6,7 C 10,0 C 76 % 1013 hPa 0,0 l/m 18,8 km/h (3 Bft) W22.5 265 15 min 35,1 klux 0,00 min 2,8 C -0,5 C
02.03.2009 16:16 6,6 C 10,6 C 76 % 1013 hPa 0,0 l/m 19,3 km/h (3 Bft) W45 275 15 min 35,2 klux 0,00 min 2,7 C -0,8 C
02.03.2009 16:31 6,2 C 9,4 C 76 % 1013 hPa 0,0 l/m 26,5 km/h (4 Bft) W45 280 0 min 27,9 klux 0,00 min 2,3 C -3,8 C
02.03.2009 16:45 6,0 C 8,5 C 77 % 1013 hPa 0,0 l/m 14,0 km/h (3 Bft) W45 265 0 min 20,1 klux 0,00 min 2,3 C 0,8 C
02.03.2009 17:00 5,9 C 8,3 C 75 % 1013 hPa 0,0 l/m 15,8 km/h (3 Bft) W-NW45 285 0 min 18,2 klux 0,00 min 1,8 C -0,2 C
02.03.2009 17:16 5,5 C 6,3 C 75 % 1013 hPa 0,0 l/m 24,6 km/h (4 Bft) W22.5 270 0 min 8,09 klux 0,00 min 1,4 C -4,1 C
02.03.2009 17:31 4,9 C 5,7 C 79 % 1014 hPa 0,0 l/m 15,1 km/h (3 Bft) W22.5 260 0 min 5,46 klux 0,00 min 1,6 C -1,1 C
02.03.2009 17:46 4,6 C 5,0 C 79 % 1014 hPa 0,0 l/m 11,7 km/h (2 Bft) W-NW45 290 0 min 3,84 klux 0,00 min 1,3 C 0,5 C
02.03.2009 18:01 4,2 C 4,6 C 80 % 1014 hPa 0,0 l/m 14,6 km/h (3 Bft) W45 280 0 min 2,49 klux 0,00 min 1,1 C -1,7 C
02.03.2009 18:16 3,9 C 3,9 C 82 % 1014 hPa 0,0 l/m 6,5 km/h (2 Bft) W 270 0 min 1,33 klux 0,00 min 1,1 C 3,8 C
02.03.2009 18:30 3,7 C 3,5 C 83 % 1014 hPa 0,0 l/m 4,3 km/h (1 Bft) W 275 0 min 336 lux 0,00 min 1,1 C 3,7 C
02.03.2009 18:45 3,4 C 3,1 C 83 % 1014 hPa 0,0 l/m 0,0 km/h (0 Bft) W 275 0 min 62 lux 0,00 min 0,8 C 3,4 C
02.03.2009 19:01 3,0 C 2,6 C 84 % 1014 hPa 0,0 l/m 0,0 km/h (0 Bft) W 275 0 min 6 lux 0,00 min 0,6 C 3,0 C
02.03.2009 19:16 2,8 C 2,4 C 86 % 1014 hPa 0,0 l/m 0,0 km/h (0 Bft) W 275 0 min 0 lux 0,00 min 0,7 C 2,8 C
02.03.2009 19:31 2,5 C 1,4 C 86 % 1014 hPa 0,0 l/m 0,0 km/h (0 Bft) W 275 0 min 0 lux 0,00 min 0,4 C 2,5 C
02.03.2009 19:46 1,7 C 0,7 C 86 % 1014 hPa 0,0 l/m 0,0 km/h (0 Bft) W 275 0 min 0 lux 0,00 min -0,4 C 1,7 C
02.03.2009 20:01 1,3 C 0,0 C 88 % 1014 hPa 0,0 l/m 0,0 km/h (0 Bft) W 275 0 min 0 lux 0,00 min -0,5 C 1,3 C
02.03.2009 20:16 0,8 C -0,8 C 88 % 1015 hPa 0,0 l/m 0,0 km/h (0 Bft) W 275 0 min 0 lux 0,00 min -1,0 C 0,8 C
02.03.2009 20:30 0,2 C -1,4 C 89 % 1014 hPa 0,0 l/m 0,0 km/h (0 Bft) W 270 0 min 0 lux 0,00 min -1,4 C 0,2 C
02.03.2009 20:46 -0,5 C -1,9 C 90 % 1014 hPa 0,0 l/m 0,0 km/h (0 Bft) W 270 0 min 0 lux 0,00 min -1,9 C -0,5 C
02.03.2009 21:01 -0,9 C -2,3 C 90 % 1014 hPa 0,0 l/m 0,0 km/h (0 Bft) W 270 0 min 0 lux 0,00 min -2,3 C -0,9 C
02.03.2009 21:16 -1,2 C -2,4 C 92 % 1015 hPa 0,0 l/m 0,0 km/h (0 Bft) W 270 0 min 0 lux 0,00 min -2,3 C -1,2 C
02.03.2009 21:31 -1,4 C -2,7 C 92 % 1015 hPa 0,0 l/m 0,0 km/h (0 Bft) W 270 0 min 0 lux 0,00 min -2,5 C -1,4 C
02.03.2009 21:46 -1,6 C -2,9 C 92 % 1015 hPa 0,0 l/m 0,0 km/h (0 Bft) W 270 0 min 0 lux 0,00 min -2,7 C -1,6 C
02.03.2009 22:01 -1,6 C -2,7 C 93 % 1015 hPa 0,0 l/m 0,0 km/h (0 Bft) W 270 0 min 0 lux 0,00 min -2,6 C -1,6 C
02.03.2009 22:15 -1,8 C -3,1 C 93 % 1015 hPa 0,0 l/m 0,0 km/h (0 Bft) W 270 0 min 0 lux 0,00 min -2,8 C -1,8 C
02.03.2009 22:30 -2,0 C -3,6 C 94 % 1015 hPa 0,0 l/m 0,0 km/h (0 Bft) W 275 0 min 0 lux 0,00 min -2,8 C -2,0 C
02.03.2009 22:46 -2,0 C -4,1 C 94 % 1015 hPa 0,0 l/m 0,0 km/h (0 Bft) W 275 0 min 0 lux 0,00 min -2,8 C -2,0 C
02.03.2009 23:01 -2,2 C -4,2 C 94 % 1015 hPa 0,0 l/m 0,0 km/h (0 Bft) W 275 0 min 0 lux 0,00 min -3,0 C -2,2 C
02.03.2009 23:16 -2,4 C -4,2 C 94 % 1015 hPa 0,0 l/m 0,0 km/h (0 Bft) W 270 0 min 0 lux 0,00 min -3,2 C -2,4 C
02.03.2009 23:31 -2,4 C -4,0 C 95 % 1015 hPa 0,0 l/m 0,0 km/h (0 Bft) W 270 0 min 0 lux 0,00 min -3,1 C -2,4 C
02.03.2009 23:46 -2,6 C -4,2 C 95 % 1015 hPa 0,0 l/m 0,0 km/h (0 Bft) W 275 0 min 0 lux 0,00 min -3,3 C -2,6 C
02.03.2009 23:55 -2,7 C -4,2 C 95 % 1015 hPa 0,0 l/m 0,0 km/h (0 Bft) W 270 0 min 0 lux 0,00 min -3,4 C -2,7 C
_ Min-Zeit 23:55 23:01 17:00 00:10 - 18:45 - - - - - 23:55 17:16
Minimum _ -2,7 C -4,2 C 75 % 1008 hPa - 0,0 km/h (0 Bft) - - - - - -3,4 C -4,1 C
_ Max-Zeit 15:31 15:31 01:40 20:16 07:25 15:31 - - 11:31 12:31 01:10 01:40 18:16
Maximum _ 7,4 C 12,0 C 99 % 1015 hPa 1,2 l/m 31,1 km/h
W (5 Bft)
- - 16 min 69,9 klux 15,00 min 5,6 C 3,8 C
Durchschnitt _ 4,2 C 4,4 C 91 % 1012 hPa #2,7 l/m 11,9 km/h (2 Bft) W - #3:16 h 9,7 klux #1:15 h 2,8 C -0,3 C